< Typhoon 198210 1982 Season Typhoon 198212 >
Typhoon 198211 (CECIL)
General InformationTrack Information on Google MapsDetailed Wind InformationList of All Images || Disaster Info.ResourceGoogle EarthGE AnimationAtom FeedGeoJSON
Detalied Best Track (Time Zone = UTC)
Year Month Day Hour Lat. Long. Pressure (hPa) Wind (kt) Class Image Chart
1982 8 4 00 16.0 130.0 1006 0 2 Image Chart
1982 8 4 06 16.8 129.2 1004 0 2 Image Chart
1982 8 4 12 17.8 128.5 1002 0 2 Image Chart
1982 8 4 18 19.0 127.8 1002 0 2 Image Chart
1982 8 5 00 20.2 127.0 1000 0 2 Image Chart
1982 8 5 06 20.6 126.1 1000 0 2 Image Chart
1982 8 5 12 20.7 125.3 1000 0 2 Image Chart
1982 8 5 18 20.6 124.6 998 0 2 Image Chart
1982 8 6 00 20.3 124.3 994 40 3 Image Chart
1982 8 6 06 20.1 124.4 990 45 3 Image Chart
1982 8 6 12 20.3 124.3 985 50 4 Image Chart
1982 8 6 18 20.4 124.2 980 50 4 Image Chart
1982 8 7 00 20.7 124.0 970 55 4 Image Chart
1982 8 7 06 20.8 123.9 955 65 5 Image Chart
1982 8 7 12 20.9 123.8 940 90 5 Image Chart
1982 8 7 18 21.0 123.6 930 90 5 Image Chart
1982 8 8 00 21.3 123.4 925 100 5 Image Chart
1982 8 8 06 21.8 123.4 925 100 5 Image Chart
1982 8 8 12 22.3 123.4 920 110 5 Image Chart
1982 8 8 18 22.9 123.6 920 110 5 Image Chart
1982 8 9 00 23.8 123.8 925 100 5 Image Chart
1982 8 9 06 24.5 123.8 930 100 5 Image Chart
1982 8 9 12 25.4 123.6 935 90 5 Image Chart
1982 8 9 18 25.8 123.2 940 90 5 Image Chart
1982 8 10 00 26.2 123.1 940 90 5 Image Chart
1982 8 10 06 26.6 123.2 940 90 5 Image Chart
1982 8 10 12 27.3 123.3 955 75 5 Image Chart
1982 8 10 18 27.3 123.3 960 70 5 Image Chart
1982 8 11 00 27.7 123.4 960 60 4 Image Chart
1982 8 11 06 27.8 123.7 965 70 5 Image Chart
1982 8 11 12 28.3 124.1 965 70 5 Image Chart
1982 8 11 18 29.0 124.2 965 70 5 Image Chart
1982 8 12 00 29.5 124.0 970 60 4 Image Chart
1982 8 12 06 30.1 124.0 975 60 4 Image Chart
1982 8 12 12 31.2 124.1 975 60 4 Image Chart
1982 8 12 18 32.3 123.3 975 55 4 Image Chart
1982 8 13 00 33.4 123.0 980 50 4 Image Chart
1982 8 13 06 34.5 122.9 980 45 3 Image Chart
1982 8 13 12 35.6 122.8 985 40 3 Image Chart
1982 8 13 18 36.5 122.8 990 40 3 Image Chart
1982 8 14 00 37.5 123.1 994 35 3 Image Chart
1982 8 14 06 38.3 123.4 994 0 2 Image Chart
1982 8 14 12 38.8 124.0 998 0 2 Image Chart
1982 8 14 18 39.0 125.0 1000 0 2 Image Chart
1982 8 15 00 40.0 126.0 1004 0 2 Image Chart
1982 8 15 06 42.0 127.0 1004 0 6 Image Chart
Japan Meteorological Agency Best Track Data | Correction Date : 1992-10-21
< Typhoon 198210 1982 Season Typhoon 198212 >

Help